sensor_id;sensor_type;location;lat;lon;timestamp;P1;durP1;ratioP1;P2;durP2;ratioP2
18804;SDS011;9530;48.930;9.526;2023-03-02T00:01:23;30.13;;;18.77;;
18804;SDS011;9530;48.930;9.526;2023-03-02T00:03:53;31.80;;;18.83;;
18804;SDS011;9530;48.930;9.526;2023-03-02T00:06:23;27.93;;;18.00;;
18804;SDS011;9530;48.930;9.526;2023-03-02T00:08:51;27.70;;;17.57;;
18804;SDS011;9530;48.930;9.526;2023-03-02T00:11:18;28.50;;;17.80;;
18804;SDS011;9530;48.930;9.526;2023-03-02T00:13:45;27.57;;;17.53;;
18804;SDS011;9530;48.930;9.526;2023-03-02T00:16:12;30.73;;;19.07;;
18804;SDS011;9530;48.930;9.526;2023-03-02T00:18:39;28.87;;;18.63;;
18804;SDS011;9530;48.930;9.526;2023-03-02T00:21:05;28.53;;;18.30;;
18804;SDS011;9530;48.930;9.526;2023-03-02T00:23:34;30.87;;;18.20;;
18804;SDS011;9530;48.930;9.526;2023-03-02T00:26:03;32.60;;;19.93;;
18804;SDS011;9530;48.930;9.526;2023-03-02T00:28:30;26.97;;;18.67;;
18804;SDS011;9530;48.930;9.526;2023-03-02T00:30:56;32.80;;;19.83;;
18804;SDS011;9530;48.930;9.526;2023-03-02T00:33:23;36.60;;;20.33;;
18804;SDS011;9530;48.930;9.526;2023-03-02T00:35:50;32.93;;;20.30;;
18804;SDS011;9530;48.930;9.526;2023-03-02T00:38:16;32.63;;;19.37;;
18804;SDS011;9530;48.930;9.526;2023-03-02T00:40:43;33.17;;;20.77;;
18804;SDS011;9530;48.930;9.526;2023-03-02T00:43:12;33.23;;;20.17;;
18804;SDS011;9530;48.930;9.526;2023-03-02T00:45:39;32.77;;;19.67;;
18804;SDS011;9530;48.930;9.526;2023-03-02T00:48:05;31.00;;;19.33;;
18804;SDS011;9530;48.930;9.526;2023-03-02T00:50:32;32.00;;;19.40;;
18804;SDS011;9530;48.930;9.526;2023-03-02T00:53:05;33.93;;;19.73;;
18804;SDS011;9530;48.930;9.526;2023-03-02T00:55:32;32.10;;;19.20;;
18804;SDS011;9530;48.930;9.526;2023-03-02T00:57:58;33.80;;;20.60;;
18804;SDS011;9530;48.930;9.526;2023-03-02T01:00:26;30.60;;;19.33;;
18804;SDS011;9530;48.930;9.526;2023-03-02T01:02:53;30.23;;;19.93;;
18804;SDS011;9530;48.930;9.526;2023-03-02T01:05:20;33.80;;;20.20;;
18804;SDS011;9530;48.930;9.526;2023-03-02T01:07:47;33.97;;;20.63;;
18804;SDS011;9530;48.930;9.526;2023-03-02T01:10:14;33.87;;;20.47;;
18804;SDS011;9530;48.930;9.526;2023-03-02T01:12:41;38.10;;;21.90;;
18804;SDS011;9530;48.930;9.526;2023-03-02T01:15:08;34.93;;;20.67;;
18804;SDS011;9530;48.930;9.526;2023-03-02T01:17:36;32.93;;;20.70;;
18804;SDS011;9530;48.930;9.526;2023-03-02T01:20:04;35.17;;;20.67;;
18804;SDS011;9530;48.930;9.526;2023-03-02T01:22:32;32.23;;;20.87;;
18804;SDS011;9530;48.930;9.526;2023-03-02T01:24:59;34.37;;;21.10;;
18804;SDS011;9530;48.930;9.526;2023-03-02T01:27:26;36.53;;;21.93;;
18804;SDS011;9530;48.930;9.526;2023-03-02T01:29:52;35.77;;;21.27;;
18804;SDS011;9530;48.930;9.526;2023-03-02T01:32:19;35.97;;;21.20;;
18804;SDS011;9530;48.930;9.526;2023-03-02T01:34:47;33.33;;;20.53;;
18804;SDS011;9530;48.930;9.526;2023-03-02T01:37:14;30.07;;;19.77;;
18804;SDS011;9530;48.930;9.526;2023-03-02T01:39:41;32.43;;;19.93;;
18804;SDS011;9530;48.930;9.526;2023-03-02T01:42:07;36.40;;;21.00;;
18804;SDS011;9530;48.930;9.526;2023-03-02T01:44:35;33.37;;;19.87;;
18804;SDS011;9530;48.930;9.526;2023-03-02T01:47:08;35.70;;;20.93;;
18804;SDS011;9530;48.930;9.526;2023-03-02T01:49:43;24.50;;;15.60;;
18804;SDS011;9530;48.930;9.526;2023-03-02T01:52:16;34.07;;;19.73;;
18804;SDS011;9530;48.930;9.526;2023-03-02T01:54:44;32.13;;;19.77;;
18804;SDS011;9530;48.930;9.526;2023-03-02T01:57:13;33.00;;;20.70;;
18804;SDS011;9530;48.930;9.526;2023-03-02T01:59:44;29.60;;;19.03;;
18804;SDS011;9530;48.930;9.526;2023-03-02T02:02:11;31.67;;;20.27;;
18804;SDS011;9530;48.930;9.526;2023-03-02T02:04:39;33.13;;;19.57;;
18804;SDS011;9530;48.930;9.526;2023-03-02T02:07:09;29.97;;;18.20;;
18804;SDS011;9530;48.930;9.526;2023-03-02T02:09:37;30.90;;;19.20;;
18804;SDS011;9530;48.930;9.526;2023-03-02T02:12:10;29.90;;;18.93;;
18804;SDS011;9530;48.930;9.526;2023-03-02T02:14:38;32.97;;;20.00;;
18804;SDS011;9530;48.930;9.526;2023-03-02T02:17:05;31.77;;;19.33;;
18804;SDS011;9530;48.930;9.526;2023-03-02T02:19:34;31.97;;;20.10;;
18804;SDS011;9530;48.930;9.526;2023-03-02T02:22:11;30.00;;;18.90;;
18804;SDS011;9530;48.930;9.526;2023-03-02T02:24:48;34.70;;;19.83;;
18804;SDS011;9530;48.930;9.526;2023-03-02T02:27:19;34.03;;;20.13;;
18804;SDS011;9530;48.930;9.526;2023-03-02T02:29:53;38.10;;;20.80;;
18804;SDS011;9530;48.930;9.526;2023-03-02T02:32:23;31.87;;;19.63;;
18804;SDS011;9530;48.930;9.526;2023-03-02T02:34:52;33.00;;;19.30;;
18804;SDS011;9530;48.930;9.526;2023-03-02T02:37:24;31.33;;;18.87;;
18804;SDS011;9530;48.930;9.526;2023-03-02T02:39:54;34.13;;;19.47;;
18804;SDS011;9530;48.930;9.526;2023-03-02T02:42:25;34.07;;;20.30;;
18804;SDS011;9530;48.930;9.526;2023-03-02T02:44:55;33.10;;;20.03;;
18804;SDS011;9530;48.930;9.526;2023-03-02T02:47:23;39.03;;;20.27;;
18804;SDS011;9530;48.930;9.526;2023-03-02T02:49:50;35.87;;;21.57;;
18804;SDS011;9530;48.930;9.526;2023-03-02T02:52:20;37.53;;;21.40;;
18804;SDS011;9530;48.930;9.526;2023-03-02T02:54:49;34.43;;;20.67;;
18804;SDS011;9530;48.930;9.526;2023-03-02T02:57:17;33.57;;;19.97;;
18804;SDS011;9530;48.930;9.526;2023-03-02T02:59:47;33.23;;;19.53;;
18804;SDS011;9530;48.930;9.526;2023-03-02T03:02:16;34.40;;;21.00;;
18804;SDS011;9530;48.930;9.526;2023-03-02T03:04:46;36.23;;;21.07;;
18804;SDS011;9530;48.930;9.526;2023-03-02T03:07:16;35.40;;;19.70;;
18804;SDS011;9530;48.930;9.526;2023-03-02T03:09:47;31.67;;;19.77;;
18804;SDS011;9530;48.930;9.526;2023-03-02T03:12:20;33.57;;;19.67;;
18804;SDS011;9530;48.930;9.526;2023-03-02T03:14:51;31.47;;;19.73;;
18804;SDS011;9530;48.930;9.526;2023-03-02T03:17:18;32.10;;;19.27;;
18804;SDS011;9530;48.930;9.526;2023-03-02T03:19:45;34.27;;;20.83;;
18804;SDS011;9530;48.930;9.526;2023-03-02T03:22:13;35.70;;;20.40;;
18804;SDS011;9530;48.930;9.526;2023-03-02T03:24:41;35.37;;;19.93;;
18804;SDS011;9530;48.930;9.526;2023-03-02T03:27:10;30.53;;;19.37;;
18804;SDS011;9530;48.930;9.526;2023-03-02T03:29:39;35.60;;;20.47;;
18804;SDS011;9530;48.930;9.526;2023-03-02T03:32:12;34.53;;;20.37;;
18804;SDS011;9530;48.930;9.526;2023-03-02T03:34:39;30.93;;;18.77;;
18804;SDS011;9530;48.930;9.526;2023-03-02T03:37:06;31.40;;;19.90;;
18804;SDS011;9530;48.930;9.526;2023-03-02T03:39:33;33.07;;;19.67;;
18804;SDS011;9530;48.930;9.526;2023-03-02T03:42:00;33.20;;;19.90;;
18804;SDS011;9530;48.930;9.526;2023-03-02T03:44:27;32.20;;;19.20;;
18804;SDS011;9530;48.930;9.526;2023-03-02T03:46:54;33.03;;;18.77;;
18804;SDS011;9530;48.930;9.526;2023-03-02T03:49:22;33.23;;;19.27;;
18804;SDS011;9530;48.930;9.526;2023-03-02T03:51:49;33.13;;;20.23;;
18804;SDS011;9530;48.930;9.526;2023-03-02T03:54:16;35.87;;;20.87;;
18804;SDS011;9530;48.930;9.526;2023-03-02T03:56:44;30.10;;;19.40;;
18804;SDS011;9530;48.930;9.526;2023-03-02T03:59:13;34.97;;;21.03;;
18804;SDS011;9530;48.930;9.526;2023-03-02T04:01:43;34.53;;;20.33;;
18804;SDS011;9530;48.930;9.526;2023-03-02T04:04:11;33.67;;;19.73;;
18804;SDS011;9530;48.930;9.526;2023-03-02T04:06:41;31.87;;;19.83;;
18804;SDS011;9530;48.930;9.526;2023-03-02T04:09:08;39.20;;;23.20;;
18804;SDS011;9530;48.930;9.526;2023-03-02T04:11:36;34.17;;;20.30;;
18804;SDS011;9530;48.930;9.526;2023-03-02T04:14:05;37.70;;;22.30;;
18804;SDS011;9530;48.930;9.526;2023-03-02T04:16:32;37.03;;;20.83;;
18804;SDS011;9530;48.930;9.526;2023-03-02T04:18:59;34.53;;;20.83;;
18804;SDS011;9530;48.930;9.526;2023-03-02T04:21:26;34.40;;;20.33;;
18804;SDS011;9530;48.930;9.526;2023-03-02T04:23:55;36.63;;;21.03;;
18804;SDS011;9530;48.930;9.526;2023-03-02T04:26:21;36.37;;;20.80;;
18804;SDS011;9530;48.930;9.526;2023-03-02T04:28:50;35.20;;;20.37;;
18804;SDS011;9530;48.930;9.526;2023-03-02T04:31:16;34.27;;;20.37;;
18804;SDS011;9530;48.930;9.526;2023-03-02T04:33:43;36.37;;;21.50;;
18804;SDS011;9530;48.930;9.526;2023-03-02T04:36:10;34.60;;;21.10;;
18804;SDS011;9530;48.930;9.526;2023-03-02T04:38:37;35.93;;;20.57;;
18804;SDS011;9530;48.930;9.526;2023-03-02T04:41:05;35.13;;;21.60;;
18804;SDS011;9530;48.930;9.526;2023-03-02T04:43:31;36.30;;;20.90;;
18804;SDS011;9530;48.930;9.526;2023-03-02T04:45:58;36.40;;;19.60;;
18804;SDS011;9530;48.930;9.526;2023-03-02T04:48:25;35.43;;;19.30;;
18804;SDS011;9530;48.930;9.526;2023-03-02T04:50:51;33.07;;;19.33;;
18804;SDS011;9530;48.930;9.526;2023-03-02T04:53:18;32.10;;;18.83;;
18804;SDS011;9530;48.930;9.526;2023-03-02T04:55:45;35.23;;;19.83;;
18804;SDS011;9530;48.930;9.526;2023-03-02T04:58:13;31.57;;;19.03;;
18804;SDS011;9530;48.930;9.526;2023-03-02T05:00:40;32.53;;;19.27;;
18804;SDS011;9530;48.930;9.526;2023-03-02T05:03:07;34.07;;;19.47;;
18804;SDS011;9530;48.930;9.526;2023-03-02T05:05:33;36.73;;;20.43;;
18804;SDS011;9530;48.930;9.526;2023-03-02T05:08:00;32.07;;;18.93;;
18804;SDS011;9530;48.930;9.526;2023-03-02T05:10:27;36.60;;;19.70;;
18804;SDS011;9530;48.930;9.526;2023-03-02T05:12:54;34.47;;;19.10;;
18804;SDS011;9530;48.930;9.526;2023-03-02T05:15:24;35.10;;;19.20;;
18804;SDS011;9530;48.930;9.526;2023-03-02T05:17:52;34.67;;;20.10;;
18804;SDS011;9530;48.930;9.526;2023-03-02T05:20:19;33.23;;;19.77;;
18804;SDS011;9530;48.930;9.526;2023-03-02T05:22:51;35.00;;;19.80;;
18804;SDS011;9530;48.930;9.526;2023-03-02T05:25:18;33.27;;;19.80;;
18804;SDS011;9530;48.930;9.526;2023-03-02T05:27:45;31.53;;;18.77;;
18804;SDS011;9530;48.930;9.526;2023-03-02T05:30:12;35.77;;;19.07;;
18804;SDS011;9530;48.930;9.526;2023-03-02T05:32:41;35.07;;;19.70;;
18804;SDS011;9530;48.930;9.526;2023-03-02T05:35:07;35.67;;;19.40;;
18804;SDS011;9530;48.930;9.526;2023-03-02T05:37:34;36.27;;;20.97;;
18804;SDS011;9530;48.930;9.526;2023-03-02T05:40:04;34.93;;;19.93;;
18804;SDS011;9530;48.930;9.526;2023-03-02T05:42:33;34.13;;;19.73;;
18804;SDS011;9530;48.930;9.526;2023-03-02T05:44:59;36.10;;;21.23;;
18804;SDS011;9530;48.930;9.526;2023-03-02T05:47:26;33.20;;;19.67;;
18804;SDS011;9530;48.930;9.526;2023-03-02T05:49:54;31.07;;;18.53;;
18804;SDS011;9530;48.930;9.526;2023-03-02T05:52:21;32.33;;;19.70;;
18804;SDS011;9530;48.930;9.526;2023-03-02T05:54:48;34.13;;;19.40;;
18804;SDS011;9530;48.930;9.526;2023-03-02T05:57:14;36.83;;;20.07;;
18804;SDS011;9530;48.930;9.526;2023-03-02T05:59:41;36.93;;;20.17;;
18804;SDS011;9530;48.930;9.526;2023-03-02T06:02:10;36.87;;;20.87;;
18804;SDS011;9530;48.930;9.526;2023-03-02T06:04:37;35.30;;;20.50;;
18804;SDS011;9530;48.930;9.526;2023-03-02T06:07:08;34.37;;;20.43;;
18804;SDS011;9530;48.930;9.526;2023-03-02T06:09:35;34.30;;;20.20;;
18804;SDS011;9530;48.930;9.526;2023-03-02T06:12:02;34.67;;;19.23;;
18804;SDS011;9530;48.930;9.526;2023-03-02T06:14:29;33.80;;;19.70;;
18804;SDS011;9530;48.930;9.526;2023-03-02T06:16:55;31.30;;;18.47;;
18804;SDS011;9530;48.930;9.526;2023-03-02T06:19:22;35.40;;;19.37;;
18804;SDS011;9530;48.930;9.526;2023-03-02T06:21:49;36.50;;;20.40;;
18804;SDS011;9530;48.930;9.526;2023-03-02T06:24:17;35.03;;;20.13;;
18804;SDS011;9530;48.930;9.526;2023-03-02T06:26:44;33.77;;;19.87;;
18804;SDS011;9530;48.930;9.526;2023-03-02T06:29:10;35.90;;;20.97;;
18804;SDS011;9530;48.930;9.526;2023-03-02T06:31:37;36.03;;;20.50;;
18804;SDS011;9530;48.930;9.526;2023-03-02T06:34:04;34.83;;;19.97;;
18804;SDS011;9530;48.930;9.526;2023-03-02T06:36:30;34.10;;;20.33;;
18804;SDS011;9530;48.930;9.526;2023-03-02T06:38:57;36.97;;;20.13;;
18804;SDS011;9530;48.930;9.526;2023-03-02T06:41:25;35.97;;;20.33;;
18804;SDS011;9530;48.930;9.526;2023-03-02T06:43:52;33.20;;;20.60;;
18804;SDS011;9530;48.930;9.526;2023-03-02T06:46:18;33.37;;;20.47;;
18804;SDS011;9530;48.930;9.526;2023-03-02T06:48:45;31.17;;;19.00;;
18804;SDS011;9530;48.930;9.526;2023-03-02T06:51:12;34.00;;;19.33;;
18804;SDS011;9530;48.930;9.526;2023-03-02T06:53:38;35.37;;;20.43;;
18804;SDS011;9530;48.930;9.526;2023-03-02T06:56:05;38.57;;;21.13;;
18804;SDS011;9530;48.930;9.526;2023-03-02T06:58:34;36.13;;;20.07;;
18804;SDS011;9530;48.930;9.526;2023-03-02T07:01:01;37.20;;;20.50;;
18804;SDS011;9530;48.930;9.526;2023-03-02T07:03:28;35.10;;;20.67;;
18804;SDS011;9530;48.930;9.526;2023-03-02T07:05:54;35.10;;;21.40;;
18804;SDS011;9530;48.930;9.526;2023-03-02T07:08:21;36.67;;;23.17;;
18804;SDS011;9530;48.930;9.526;2023-03-02T07:10:48;41.23;;;24.07;;
18804;SDS011;9530;48.930;9.526;2023-03-02T07:13:14;40.10;;;24.50;;
18804;SDS011;9530;48.930;9.526;2023-03-02T07:15:42;40.73;;;22.83;;
18804;SDS011;9530;48.930;9.526;2023-03-02T07:18:09;37.97;;;22.37;;
18804;SDS011;9530;48.930;9.526;2023-03-02T07:20:36;39.27;;;21.97;;
18804;SDS011;9530;48.930;9.526;2023-03-02T07:23:03;33.23;;;20.33;;
18804;SDS011;9530;48.930;9.526;2023-03-02T07:25:30;37.63;;;21.60;;
18804;SDS011;9530;48.930;9.526;2023-03-02T07:27:57;35.60;;;21.50;;
18804;SDS011;9530;48.930;9.526;2023-03-02T07:30:24;39.33;;;21.40;;
18804;SDS011;9530;48.930;9.526;2023-03-02T07:32:52;36.40;;;21.30;;
18804;SDS011;9530;48.930;9.526;2023-03-02T07:35:19;34.83;;;20.63;;
18804;SDS011;9530;48.930;9.526;2023-03-02T07:37:45;36.63;;;22.17;;
18804;SDS011;9530;48.930;9.526;2023-03-02T07:40:12;35.07;;;21.33;;
18804;SDS011;9530;48.930;9.526;2023-03-02T07:42:39;32.83;;;20.57;;
18804;SDS011;9530;48.930;9.526;2023-03-02T07:45:06;32.40;;;19.30;;
18804;SDS011;9530;48.930;9.526;2023-03-02T07:47:33;34.23;;;20.50;;
18804;SDS011;9530;48.930;9.526;2023-03-02T07:50:01;31.20;;;18.60;;
18804;SDS011;9530;48.930;9.526;2023-03-02T07:52:28;34.23;;;19.50;;
18804;SDS011;9530;48.930;9.526;2023-03-02T07:54:55;32.20;;;19.10;;
18804;SDS011;9530;48.930;9.526;2023-03-02T07:57:22;30.63;;;18.10;;
18804;SDS011;9530;48.930;9.526;2023-03-02T07:59:49;31.03;;;18.40;;
18804;SDS011;9530;48.930;9.526;2023-03-02T08:02:16;30.20;;;18.90;;
18804;SDS011;9530;48.930;9.526;2023-03-02T08:04:44;33.10;;;19.30;;
18804;SDS011;9530;48.930;9.526;2023-03-02T08:07:12;28.70;;;18.03;;
18804;SDS011;9530;48.930;9.526;2023-03-02T08:09:39;29.83;;;19.27;;
18804;SDS011;9530;48.930;9.526;2023-03-02T08:12:05;27.40;;;17.53;;
18804;SDS011;9530;48.930;9.526;2023-03-02T08:14:32;28.00;;;18.33;;
18804;SDS011;9530;48.930;9.526;2023-03-02T08:16:59;28.67;;;17.70;;
18804;SDS011;9530;48.930;9.526;2023-03-02T08:19:26;28.70;;;17.20;;
18804;SDS011;9530;48.930;9.526;2023-03-02T08:21:53;27.70;;;17.37;;
18804;SDS011;9530;48.930;9.526;2023-03-02T08:24:21;28.27;;;17.37;;
18804;SDS011;9530;48.930;9.526;2023-03-02T08:26:48;30.43;;;18.10;;
18804;SDS011;9530;48.930;9.526;2023-03-02T08:29:14;26.70;;;17.57;;
18804;SDS011;9530;48.930;9.526;2023-03-02T08:31:41;28.50;;;17.67;;
18804;SDS011;9530;48.930;9.526;2023-03-02T08:34:08;28.53;;;18.00;;
18804;SDS011;9530;48.930;9.526;2023-03-02T08:36:34;28.77;;;17.97;;
18804;SDS011;9530;48.930;9.526;2023-03-02T08:39:01;27.30;;;17.20;;
18804;SDS011;9530;48.930;9.526;2023-03-02T08:41:29;29.07;;;17.17;;
18804;SDS011;9530;48.930;9.526;2023-03-02T08:43:56;28.03;;;17.27;;
18804;SDS011;9530;48.930;9.526;2023-03-02T08:46:22;27.77;;;17.77;;
18804;SDS011;9530;48.930;9.526;2023-03-02T08:48:49;30.00;;;17.90;;
18804;SDS011;9530;48.930;9.526;2023-03-02T08:51:17;34.30;;;18.23;;
18804;SDS011;9530;48.930;9.526;2023-03-02T08:53:46;32.00;;;17.83;;
18804;SDS011;9530;48.930;9.526;2023-03-02T08:56:16;27.23;;;16.87;;
18804;SDS011;9530;48.930;9.526;2023-03-02T08:58:45;26.40;;;16.70;;
18804;SDS011;9530;48.930;9.526;2023-03-02T09:01:12;26.27;;;16.93;;
18804;SDS011;9530;48.930;9.526;2023-03-02T09:03:40;25.83;;;15.90;;
18804;SDS011;9530;48.930;9.526;2023-03-02T09:06:06;30.23;;;17.47;;
18804;SDS011;9530;48.930;9.526;2023-03-02T09:08:33;24.47;;;16.00;;
18804;SDS011;9530;48.930;9.526;2023-03-02T09:11:00;31.03;;;17.03;;
18804;SDS011;9530;48.930;9.526;2023-03-02T09:13:26;25.97;;;17.00;;
18804;SDS011;9530;48.930;9.526;2023-03-02T09:15:54;25.23;;;16.67;;
18804;SDS011;9530;48.930;9.526;2023-03-02T09:18:21;27.93;;;16.97;;
18804;SDS011;9530;48.930;9.526;2023-03-02T09:20:48;26.60;;;15.97;;
18804;SDS011;9530;48.930;9.526;2023-03-02T09:23:15;26.37;;;15.87;;
18804;SDS011;9530;48.930;9.526;2023-03-02T09:25:42;27.73;;;16.50;;
18804;SDS011;9530;48.930;9.526;2023-03-02T09:28:10;26.90;;;16.60;;
18804;SDS011;9530;48.930;9.526;2023-03-02T09:30:37;25.90;;;15.57;;
18804;SDS011;9530;48.930;9.526;2023-03-02T09:33:05;28.73;;;15.80;;
18804;SDS011;9530;48.930;9.526;2023-03-02T09:35:31;30.77;;;16.40;;
18804;SDS011;9530;48.930;9.526;2023-03-02T09:37:58;27.87;;;15.23;;
18804;SDS011;9530;48.930;9.526;2023-03-02T09:40:25;26.27;;;16.17;;
18804;SDS011;9530;48.930;9.526;2023-03-02T09:42:57;28.07;;;15.80;;
18804;SDS011;9530;48.930;9.526;2023-03-02T09:48:29;24.33;;;14.90;;
18804;SDS011;9530;48.930;9.526;2023-03-02T09:51:06;23.30;;;14.83;;
18804;SDS011;9530;48.930;9.526;2023-03-02T09:53:46;22.03;;;15.13;;
18804;SDS011;9530;48.930;9.526;2023-03-02T09:56:19;26.40;;;15.57;;
18804;SDS011;9530;48.930;9.526;2023-03-02T09:58:47;22.00;;;14.47;;
18804;SDS011;9530;48.930;9.526;2023-03-02T10:01:21;22.33;;;14.83;;
18804;SDS011;9530;48.930;9.526;2023-03-02T10:03:57;22.93;;;14.57;;
18804;SDS011;9530;48.930;9.526;2023-03-02T10:06:29;25.40;;;15.00;;
18804;SDS011;9530;48.930;9.526;2023-03-02T10:08:56;23.40;;;14.53;;
18804;SDS011;9530;48.930;9.526;2023-03-02T10:11:25;25.40;;;15.03;;
18804;SDS011;9530;48.930;9.526;2023-03-02T10:14:02;25.17;;;14.97;;
18804;SDS011;9530;48.930;9.526;2023-03-02T10:16:36;22.50;;;15.10;;
18804;SDS011;9530;48.930;9.526;2023-03-02T10:19:13;24.40;;;14.97;;
18804;SDS011;9530;48.930;9.526;2023-03-02T10:21:46;25.27;;;14.33;;
18804;SDS011;9530;48.930;9.526;2023-03-02T10:24:20;22.63;;;14.80;;
18804;SDS011;9530;48.930;9.526;2023-03-02T10:27:04;24.47;;;13.90;;
18804;SDS011;9530;48.930;9.526;2023-03-02T10:29:46;22.60;;;14.33;;
18804;SDS011;9530;48.930;9.526;2023-03-02T10:32:21;24.13;;;14.47;;
18804;SDS011;9530;48.930;9.526;2023-03-02T10:34:50;21.83;;;14.47;;
18804;SDS011;9530;48.930;9.526;2023-03-02T10:37:19;22.50;;;14.17;;
18804;SDS011;9530;48.930;9.526;2023-03-02T10:39:48;23.17;;;13.83;;
18804;SDS011;9530;48.930;9.526;2023-03-02T10:42:16;24.57;;;13.70;;
18804;SDS011;9530;48.930;9.526;2023-03-02T10:44:46;25.47;;;13.93;;
18804;SDS011;9530;48.930;9.526;2023-03-02T10:47:20;20.40;;;13.50;;
18804;SDS011;9530;48.930;9.526;2023-03-02T10:49:49;25.70;;;14.00;;
18804;SDS011;9530;48.930;9.526;2023-03-02T10:52:18;23.10;;;12.37;;
18804;SDS011;9530;48.930;9.526;2023-03-02T10:54:46;20.53;;;13.50;;
18804;SDS011;9530;48.930;9.526;2023-03-02T10:57:30;22.83;;;13.23;;
18804;SDS011;9530;48.930;9.526;2023-03-02T11:00:02;18.27;;;12.73;;
18804;SDS011;9530;48.930;9.526;2023-03-02T11:02:46;21.07;;;13.80;;
18804;SDS011;9530;48.930;9.526;2023-03-02T11:05:28;23.50;;;13.23;;
18804;SDS011;9530;48.930;9.526;2023-03-02T11:07:57;21.43;;;12.53;;
18804;SDS011;9530;48.930;9.526;2023-03-02T11:10:26;16.17;;;11.43;;
18804;SDS011;9530;48.930;9.526;2023-03-02T11:12:55;19.07;;;11.97;;
18804;SDS011;9530;48.930;9.526;2023-03-02T11:15:24;19.93;;;12.23;;
18804;SDS011;9530;48.930;9.526;2023-03-02T11:17:54;20.03;;;12.10;;
18804;SDS011;9530;48.930;9.526;2023-03-02T11:20:29;21.40;;;11.83;;
18804;SDS011;9530;48.930;9.526;2023-03-02T11:22:59;23.70;;;13.37;;
18804;SDS011;9530;48.930;9.526;2023-03-02T11:25:35;19.60;;;12.90;;
18804;SDS011;9530;48.930;9.526;2023-03-02T11:28:08;19.47;;;11.70;;
18804;SDS011;9530;48.930;9.526;2023-03-02T11:30:41;16.30;;;11.33;;
18804;SDS011;9530;48.930;9.526;2023-03-02T11:33:14;19.40;;;12.30;;
18804;SDS011;9530;48.930;9.526;2023-03-02T11:35:49;19.80;;;11.90;;
18804;SDS011;9530;48.930;9.526;2023-03-02T11:38:18;20.23;;;12.83;;
18804;SDS011;9530;48.930;9.526;2023-03-02T11:40:50;17.43;;;11.30;;
18804;SDS011;9530;48.930;9.526;2023-03-02T11:43:20;19.57;;;11.43;;
18804;SDS011;9530;48.930;9.526;2023-03-02T11:45:47;16.17;;;10.60;;
18804;SDS011;9530;48.930;9.526;2023-03-02T11:48:20;14.57;;;10.07;;
18804;SDS011;9530;48.930;9.526;2023-03-02T11:50:54;16.57;;;11.17;;
18804;SDS011;9530;48.930;9.526;2023-03-02T11:53:24;17.97;;;11.07;;
18804;SDS011;9530;48.930;9.526;2023-03-02T11:55:55;18.27;;;10.17;;
18804;SDS011;9530;48.930;9.526;2023-03-02T11:58:22;17.27;;;10.00;;
18804;SDS011;9530;48.930;9.526;2023-03-02T12:00:51;17.60;;;10.03;;
18804;SDS011;9530;48.930;9.526;2023-03-02T12:03:20;16.40;;;10.00;;
18804;SDS011;9530;48.930;9.526;2023-03-02T12:06:00;16.33;;;10.17;;
18804;SDS011;9530;48.930;9.526;2023-03-02T12:08:31;13.97;;;10.10;;
18804;SDS011;9530;48.930;9.526;2023-03-02T12:11:04;18.03;;;10.43;;
18804;SDS011;9530;48.930;9.526;2023-03-02T12:13:33;16.93;;;9.90;;
18804;SDS011;9530;48.930;9.526;2023-03-02T12:16:01;12.87;;;9.97;;
18804;SDS011;9530;48.930;9.526;2023-03-02T12:18:29;17.20;;;10.40;;
18804;SDS011;9530;48.930;9.526;2023-03-02T12:21:10;17.17;;;10.10;;
18804;SDS011;9530;48.930;9.526;2023-03-02T12:23:40;15.80;;;10.83;;
18804;SDS011;9530;48.930;9.526;2023-03-02T12:26:27;18.20;;;9.77;;
18804;SDS011;9530;48.930;9.526;2023-03-02T12:29:00;17.77;;;10.20;;
18804;SDS011;9530;48.930;9.526;2023-03-02T12:31:42;16.37;;;9.53;;
18804;SDS011;9530;48.930;9.526;2023-03-02T12:34:21;19.03;;;9.93;;
18804;SDS011;9530;48.930;9.526;2023-03-02T12:36:54;14.57;;;10.53;;
18804;SDS011;9530;48.930;9.526;2023-03-02T12:39:25;15.43;;;9.70;;
18804;SDS011;9530;48.930;9.526;2023-03-02T12:42:08;16.03;;;10.13;;
18804;SDS011;9530;48.930;9.526;2023-03-02T12:45:00;18.40;;;11.27;;
18804;SDS011;9530;48.930;9.526;2023-03-02T12:47:37;14.93;;;10.53;;
18804;SDS011;9530;48.930;9.526;2023-03-02T12:50:15;14.67;;;10.33;;
18804;SDS011;9530;48.930;9.526;2023-03-02T12:52:44;14.93;;;10.50;;
18804;SDS011;9530;48.930;9.526;2023-03-02T12:55:22;18.33;;;11.40;;
18804;SDS011;9530;48.930;9.526;2023-03-02T12:57:50;16.90;;;10.63;;
18804;SDS011;9530;48.930;9.526;2023-03-02T13:00:18;14.90;;;10.27;;
18804;SDS011;9530;48.930;9.526;2023-03-02T13:02:48;19.83;;;10.10;;
18804;SDS011;9530;48.930;9.526;2023-03-02T13:05:16;18.13;;;10.43;;
18804;SDS011;9530;48.930;9.526;2023-03-02T13:07:48;19.57;;;10.83;;
18804;SDS011;9530;48.930;9.526;2023-03-02T13:10:23;15.77;;;10.57;;
18804;SDS011;9530;48.930;9.526;2023-03-02T13:12:53;16.50;;;10.37;;
18804;SDS011;9530;48.930;9.526;2023-03-02T13:15:20;18.30;;;10.67;;
18804;SDS011;9530;48.930;9.526;2023-03-02T13:17:52;19.00;;;11.00;;
18804;SDS011;9530;48.930;9.526;2023-03-02T13:20:20;17.60;;;10.40;;
18804;SDS011;9530;48.930;9.526;2023-03-02T13:22:50;16.20;;;10.00;;
18804;SDS011;9530;48.930;9.526;2023-03-02T13:25:20;15.57;;;10.23;;
18804;SDS011;9530;48.930;9.526;2023-03-02T13:27:52;19.53;;;11.27;;
18804;SDS011;9530;48.930;9.526;2023-03-02T13:30:23;14.87;;;10.57;;
18804;SDS011;9530;48.930;9.526;2023-03-02T13:32:53;18.03;;;11.23;;
18804;SDS011;9530;48.930;9.526;2023-03-02T13:35:25;17.30;;;10.77;;
18804;SDS011;9530;48.930;9.526;2023-03-02T13:37:58;15.80;;;10.67;;
18804;SDS011;9530;48.930;9.526;2023-03-02T13:40:32;19.43;;;11.63;;
18804;SDS011;9530;48.930;9.526;2023-03-02T13:43:04;18.47;;;10.97;;
18804;SDS011;9530;48.930;9.526;2023-03-02T13:45:52;13.67;;;10.27;;
18804;SDS011;9530;48.930;9.526;2023-03-02T13:48:20;15.73;;;10.23;;
18804;SDS011;9530;48.930;9.526;2023-03-02T13:50:51;15.97;;;10.73;;
18804;SDS011;9530;48.930;9.526;2023-03-02T13:53:21;17.40;;;10.30;;
18804;SDS011;9530;48.930;9.526;2023-03-02T13:55:49;15.97;;;10.30;;
18804;SDS011;9530;48.930;9.526;2023-03-02T13:58:18;19.73;;;10.13;;
18804;SDS011;9530;48.930;9.526;2023-03-02T14:00:46;15.93;;;9.90;;
18804;SDS011;9530;48.930;9.526;2023-03-02T14:03:20;18.40;;;10.50;;
18804;SDS011;9530;48.930;9.526;2023-03-02T14:05:49;13.80;;;9.73;;
18804;SDS011;9530;48.930;9.526;2023-03-02T14:08:16;15.20;;;10.33;;
18804;SDS011;9530;48.930;9.526;2023-03-02T14:10:44;14.90;;;10.13;;
18804;SDS011;9530;48.930;9.526;2023-03-02T14:13:12;14.63;;;9.40;;
18804;SDS011;9530;48.930;9.526;2023-03-02T14:15:45;15.20;;;9.93;;
18804;SDS011;9530;48.930;9.526;2023-03-02T14:18:20;16.53;;;9.40;;
18804;SDS011;9530;48.930;9.526;2023-03-02T14:20:51;16.53;;;9.10;;
18804;SDS011;9530;48.930;9.526;2023-03-02T14:23:18;17.20;;;9.93;;
18804;SDS011;9530;48.930;9.526;2023-03-02T14:25:46;17.33;;;9.73;;
18804;SDS011;9530;48.930;9.526;2023-03-02T14:28:13;17.10;;;9.97;;
18804;SDS011;9530;48.930;9.526;2023-03-02T14:30:47;17.47;;;9.50;;
18804;SDS011;9530;48.930;9.526;2023-03-02T14:33:16;16.97;;;9.30;;
18804;SDS011;9530;48.930;9.526;2023-03-02T14:35:43;16.67;;;9.50;;
18804;SDS011;9530;48.930;9.526;2023-03-02T14:38:10;16.33;;;9.43;;
18804;SDS011;9530;48.930;9.526;2023-03-02T14:40:37;13.83;;;9.73;;
18804;SDS011;9530;48.930;9.526;2023-03-02T14:43:05;17.77;;;9.10;;
18804;SDS011;9530;48.930;9.526;2023-03-02T14:45:31;19.10;;;10.07;;
18804;SDS011;9530;48.930;9.526;2023-03-02T14:47:58;18.20;;;10.20;;
18804;SDS011;9530;48.930;9.526;2023-03-02T14:50:25;15.60;;;10.43;;